Time;durP1;ratioP1;P1;durP2;ratioP2;P2;SDS_P1;SDS_P2;PMS_P1;PMS_P2;Temp;Humidity;BMP_temperature;BMP_pressure;BME280_temperature;BME280_humidity;BME280_pressure;Samples;Min_cycle;Max_cycle;Signal;HPM_P1;HPM_P2
2023/12/01 00:02:03;;;;;;;;;;;;;;;0.33;100.00;100378.97;5115619;28;19915;-38
2023/12/01 00:04:28;;;;;;;;;;;;;;;0.40;100.00;100380.13;5119473;28;20010;-39
2023/12/01 00:06:53;;;;;;;;;;;;;;;0.59;100.00;100374.13;5123564;28;19951;-40
2023/12/01 00:09:18;;;;;;;;;;;;;;;0.68;100.00;100381.28;5123338;28;19920;-38
2023/12/01 00:11:44;;;;;;;;;;;;;;;0.65;100.00;100379.75;5124192;28;19923;-39
2023/12/01 00:14:09;;;;;;;;;;;;;;;0.64;100.00;100383.38;5120974;28;19920;-38
2023/12/01 00:16:34;;;;;;;;;;;;;;;0.66;100.00;100385.91;5116119;28;19922;-39
2023/12/01 00:19:00;;;;;;;;;;;;;;;0.59;100.00;100388.22;5115422;28;19929;-38
2023/12/01 00:21:25;;;;;;;;;;;;;;;0.50;100.00;100386.34;5122377;28;19946;-40
2023/12/01 00:23:50;;;;;;;;;;;;;;;0.41;100.00;100392.41;5123846;28;19920;-39
2023/12/01 00:26:15;;;;;;;;;;;;;;;0.46;100.00;100384.91;5119851;28;20049;-40
2023/12/01 00:28:41;;;;;;;;;;;;;;;0.47;100.00;100391.03;5115525;28;19916;-39
2023/12/01 00:31:06;;;;;;;;;;;;;;;0.34;100.00;100391.22;5115787;28;19920;-39
2023/12/01 00:33:31;;;;;;;;;;;;;;;0.26;100.00;100389.19;5115316;28;19919;-38
2023/12/01 00:35:56;;;;;;;;;;;;;;;0.17;100.00;100393.44;5114856;28;19926;-39
2023/12/01 00:38:21;;;;;;;;;;;;;;;0.19;100.00;100399.47;5114390;28;20006;-39
2023/12/01 00:40:47;;;;;;;;;;;;;;;0.18;100.00;100400.41;5114479;28;19942;-39
2023/12/01 00:43:13;;;;;;;;;;;;;;;0.17;100.00;100403.22;5114971;28;19931;-39
2023/12/01 00:45:38;;;;;;;;;;;;;;;0.14;100.00;100409.59;5114753;28;19942;-40
2023/12/01 00:48:03;;;;;;;;;;;;;;;0.14;100.00;100412.22;5114971;28;19977;-38
2023/12/01 00:50:28;;;;;;;;;;;;;;;0.13;100.00;100417.63;5114580;28;19916;-38
2023/12/01 00:52:54;;;;;;;;;;;;;;;0.05;100.00;100423.56;5112887;28;19954;-39
2023/12/01 00:55:19;;;;;;;;;;;;;;;0.04;100.00;100421.88;5114561;28;20259;-39
2023/12/01 00:57:44;;;;;;;;;;;;;;;-0.06;100.00;100421.78;5114325;27;20252;-38
2023/12/01 01:00:10;;;;;;;;;;;;;;;-0.14;100.00;100428.66;5114328;28;19920;-38
2023/12/01 01:02:35;;;;;;;;;;;;;;;-0.13;100.00;100432.97;5113011;28;19955;-38
2023/12/01 01:05:02;;;;;;;;;;;;;;;-0.16;100.00;100430.59;5114298;28;19963;-38
2023/12/01 01:07:28;;;;;;;;;;;;;;;-0.24;100.00;100439.13;5113879;28;20393;-39
2023/12/01 01:09:53;;;;;;;;;;;;;;;-0.25;100.00;100438.28;5112897;28;20011;-40
2023/12/01 01:12:18;;;;;;;;;;;;;;;-0.22;100.00;100438.03;5113955;28;19957;-39
2023/12/01 01:14:43;;;;;;;;;;;;;;;-0.26;100.00;100441.91;5113828;28;19919;-38
2023/12/01 01:17:09;;;;;;;;;;;;;;;-0.34;100.00;100448.75;5114367;28;20373;-39
2023/12/01 01:19:34;;;;;;;;;;;;;;;-0.33;100.00;100451.28;5114433;28;20401;-39
2023/12/01 01:21:59;;;;;;;;;;;;;;;-0.39;100.00;100450.94;5113718;28;19920;-39
2023/12/01 01:24:24;;;;;;;;;;;;;;;-0.43;100.00;100445.03;5113982;28;20401;-40
2023/12/01 01:26:50;;;;;;;;;;;;;;;-0.40;100.00;100450.06;5114712;28;20413;-39
2023/12/01 01:29:15;;;;;;;;;;;;;;;-0.35;100.00;100455.00;5114971;28;19929;-39
2023/12/01 01:31:41;;;;;;;;;;;;;;;-0.36;100.00;100461.28;5115508;28;20024;-40
2023/12/01 01:34:06;;;;;;;;;;;;;;;-0.35;100.00;100460.28;5119228;28;19920;-39
2023/12/01 01:36:31;;;;;;;;;;;;;;;-0.37;100.00;100465.72;5115272;28;20397;-38
2023/12/01 01:38:57;;;;;;;;;;;;;;;-0.40;100.00;100463.28;5121041;28;20382;-38
2023/12/01 01:41:22;;;;;;;;;;;;;;;-0.42;100.00;100467.03;5123640;28;19920;-40
2023/12/01 01:43:47;;;;;;;;;;;;;;;-0.50;100.00;100465.84;5121590;28;19984;-39
2023/12/01 01:46:14;;;;;;;;;;;;;;;-0.51;100.00;100463.31;5119982;28;19916;-39
2023/12/01 01:48:41;;;;;;;;;;;;;;;-0.49;100.00;100474.59;5119505;28;19926;-40
2023/12/01 01:51:08;;;;;;;;;;;;;;;-0.38;100.00;100477.25;5122375;28;19916;-39
2023/12/01 01:53:33;;;;;;;;;;;;;;;-0.35;100.00;100484.94;5118163;28;19959;-39
2023/12/01 01:55:58;;;;;;;;;;;;;;;-0.40;100.00;100487.09;5116761;28;19985;-38
2023/12/01 01:58:24;;;;;;;;;;;;;;;-0.52;100.00;100490.72;5117923;28;19920;-39
2023/12/01 02:00:50;;;;;;;;;;;;;;;-0.68;100.00;100481.31;5118564;28;19947;-39
2023/12/01 02:03:16;;;;;;;;;;;;;;;-0.76;100.00;100475.78;5110313;28;19970;-39
2023/12/01 02:05:41;;;;;;;;;;;;;;;-0.73;100.00;100478.19;5112805;28;20476;-39
2023/12/01 02:08:22;;;;;;;;;;;;;;;-0.75;100.00;100477.47;5117892;28;20003;-39
2023/12/01 02:10:47;;;;;;;;;;;;;;;-0.77;100.00;100482.00;5118679;28;19938;-38
2023/12/01 02:13:14;;;;;;;;;;;;;;;-0.80;100.00;100484.06;5118059;28;19915;-40
2023/12/01 02:15:40;;;;;;;;;;;;;;;-0.83;100.00;100479.84;5118651;28;19916;-39
2023/12/01 02:18:17;;;;;;;;;;;;;;;-0.87;100.00;100478.38;5118656;28;19995;-39
2023/12/01 02:20:42;;;;;;;;;;;;;;;-0.89;100.00;100485.63;5113172;28;19920;-38
2023/12/01 02:23:07;;;;;;;;;;;;;;;-0.84;100.00;100488.75;5116995;28;19981;-41
2023/12/01 02:25:33;;;;;;;;;;;;;;;-0.94;100.00;100487.75;5116525;28;19916;-40
2023/12/01 02:28:00;;;;;;;;;;;;;;;-0.91;100.00;100482.25;5117692;28;20377;-40
2023/12/01 02:30:25;;;;;;;;;;;;;;;-0.87;100.00;100486.31;5117375;28;20014;-38
2023/12/01 02:32:50;;;;;;;;;;;;;;;-0.89;100.00;100491.72;5117359;28;19981;-38
2023/12/01 02:35:15;;;;;;;;;;;;;;;-0.86;100.00;100490.66;5117379;28;19928;-39
2023/12/01 02:37:41;;;;;;;;;;;;;;;-0.85;100.00;100497.63;5118256;28;19972;-38
2023/12/01 02:40:14;;;;;;;;;;;;;;;-0.83;100.00;100495.72;5117477;28;19916;-38
2023/12/01 02:42:44;;;;;;;;;;;;;;;-0.91;100.00;100500.72;5117233;28;19920;-38
2023/12/01 02:45:09;;;;;;;;;;;;;;;-0.92;100.00;100499.06;5116619;28;20366;-39
2023/12/01 02:47:34;;;;;;;;;;;;;;;-0.82;100.00;100497.38;5116869;28;19924;-38
2023/12/01 02:49:59;;;;;;;;;;;;;;;-0.89;100.00;100501.47;5116800;28;20325;-38
2023/12/01 02:52:25;;;;;;;;;;;;;;;-0.83;100.00;100501.00;5116585;28;19930;-39
2023/12/01 02:54:50;;;;;;;;;;;;;;;-0.83;100.00;100508.91;5117181;28;20002;-38
2023/12/01 02:57:15;;;;;;;;;;;;;;;-0.88;100.00;100503.97;5118026;28;19919;-38
2023/12/01 02:59:40;;;;;;;;;;;;;;;-0.89;100.00;100489.09;5117301;28;19934;-39
2023/12/01 03:02:05;;;;;;;;;;;;;;;-0.85;100.00;100491.50;5117592;28;19920;-39
2023/12/01 03:04:31;;;;;;;;;;;;;;;-0.89;100.00;100497.03;5116630;28;19927;-40
2023/12/01 03:06:56;;;;;;;;;;;;;;;-0.97;100.00;100495.94;5116515;28;19930;-39
2023/12/01 03:09:21;;;;;;;;;;;;;;;-0.96;100.00;100497.59;5117333;28;19920;-38
2023/12/01 03:11:48;;;;;;;;;;;;;;;-1.07;100.00;100487.84;5122612;28;19951;-38
2023/12/01 03:14:14;;;;;;;;;;;;;;;-1.23;100.00;100498.72;5119038;28;20318;-38
2023/12/01 03:16:40;;;;;;;;;;;;;;;-1.25;100.00;100494.50;5115196;28;20377;-38
2023/12/01 03:19:08;;;;;;;;;;;;;;;-1.40;100.00;100496.47;5123608;28;20282;-37
2023/12/01 03:21:33;;;;;;;;;;;;;;;-1.31;100.00;100494.97;5117613;28;20002;-38
2023/12/01 03:24:00;;;;;;;;;;;;;;;-1.15;100.00;100485.78;5121488;28;19951;-39
2023/12/01 03:26:25;;;;;;;;;;;;;;;-1.08;100.00;100498.50;5118895;28;20334;-37
2023/12/01 03:28:50;;;;;;;;;;;;;;;-1.07;100.00;100502.84;5116997;28;19919;-39
2023/12/01 03:31:15;;;;;;;;;;;;;;;-1.07;100.00;100502.84;5116407;28;19981;-38
2023/12/01 03:33:41;;;;;;;;;;;;;;;-1.12;100.00;100505.84;5116003;28;20397;-39
2023/12/01 03:36:06;;;;;;;;;;;;;;;-1.26;100.00;100513.94;5115859;28;20387;-39
2023/12/01 03:38:32;;;;;;;;;;;;;;;-1.17;100.00;100514.09;5116333;27;19957;-39
2023/12/01 03:40:57;;;;;;;;;;;;;;;-1.15;100.00;100506.91;5120954;28;19980;-37
2023/12/01 03:43:23;;;;;;;;;;;;;;;-1.23;100.00;100509.28;5123507;28;19945;-38
2023/12/01 03:45:48;;;;;;;;;;;;;;;-1.23;100.00;100509.28;5115141;28;19920;-38
2023/12/01 03:48:13;;;;;;;;;;;;;;;-1.29;100.00;100517.66;5115686;28;19973;-39
2023/12/01 03:50:38;;;;;;;;;;;;;;;-1.17;100.00;100514.09;5115651;28;19966;-38
2023/12/01 03:53:04;;;;;;;;;;;;;;;-1.15;100.00;100520.13;5115217;28;19916;-38
2023/12/01 03:55:29;;;;;;;;;;;;;;;-1.19;100.00;100521.28;5115198;28;19966;-39
2023/12/01 03:57:54;;;;;;;;;;;;;;;-1.27;100.00;100523.66;5114860;28;20312;-38
2023/12/01 04:00:21;;;;;;;;;;;;;;;-1.33;100.00;100524.13;5114998;28;20322;-40
2023/12/01 04:02:47;;;;;;;;;;;;;;;-1.35;100.00;100529.50;5115158;28;19977;-40
2023/12/01 04:05:17;;;;;;;;;;;;;;;-1.29;100.00;100536.16;5114987;28;20342;-37
2023/12/01 04:07:44;;;;;;;;;;;;;;;-1.23;100.00;100540.97;5114694;28;20370;-39
2023/12/01 04:10:10;;;;;;;;;;;;;;;-1.32;100.00;100541.63;5115374;28;19969;-38
2023/12/01 04:12:38;;;;;;;;;;;;;;;-1.28;100.00;100539.63;5114088;28;19924;-39
2023/12/01 04:15:05;;;;;;;;;;;;;;;-1.28;100.00;100547.53;5115014;28;19959;-38
2023/12/01 04:17:30;;;;;;;;;;;;;;;-1.33;100.00;100543.44;5115434;28;19994;-39
2023/12/01 04:19:56;;;;;;;;;;;;;;;-1.32;100.00;100554.81;5115629;28;20417;-39
2023/12/01 04:22:21;;;;;;;;;;;;;;;-1.26;100.00;100549.13;5123755;28;19927;-38
2023/12/01 04:24:46;;;;;;;;;;;;;;;-1.26;100.00;100542.97;5125554;28;19919;-40
2023/12/01 04:27:12;;;;;;;;;;;;;;;-1.26;100.00;100551.75;5118986;28;19976;-38
2023/12/01 04:29:38;;;;;;;;;;;;;;;-1.24;100.00;100555.09;5115376;28;20305;-39
2023/12/01 04:32:04;;;;;;;;;;;;;;;-1.24;100.00;100559.56;5114687;28;19961;-38
2023/12/01 04:34:29;;;;;;;;;;;;;;;-1.19;100.00;100557.41;5114711;28;19969;-39
2023/12/01 04:36:54;;;;;;;;;;;;;;;-1.24;100.00;100557.75;5114672;28;19919;-39
2023/12/01 04:39:20;;;;;;;;;;;;;;;-1.26;100.00;100562.31;5114180;28;19927;-40
2023/12/01 04:41:46;;;;;;;;;;;;;;;-1.27;100.00;100563.25;5114592;28;19920;-39
2023/12/01 04:44:11;;;;;;;;;;;;;;;-1.19;100.00;100566.16;5120244;28;19919;-39
2023/12/01 04:46:37;;;;;;;;;;;;;;;-1.19;100.00;100574.09;5124255;28;20839;-39
2023/12/01 04:49:02;;;;;;;;;;;;;;;-1.18;100.00;100581.09;5124107;28;20344;-39
2023/12/01 04:51:28;;;;;;;;;;;;;;;-1.09;100.00;100581.34;5117362;28;19919;-39
2023/12/01 04:53:53;;;;;;;;;;;;;;;-1.01;100.00;100586.91;5115006;28;19979;-38
2023/12/01 04:56:18;;;;;;;;;;;;;;;-1.00;100.00;100588.59;5113278;28;20014;-40
2023/12/01 04:58:43;;;;;;;;;;;;;;;-1.00;100.00;100584.16;5112933;28;19920;-39
2023/12/01 05:01:09;;;;;;;;;;;;;;;-0.97;100.00;100591.03;5114842;28;20326;-38
2023/12/01 05:03:34;;;;;;;;;;;;;;;-0.94;100.00;100586.34;5114599;28;20408;-38
2023/12/01 05:06:00;;;;;;;;;;;;;;;-0.84;100.00;100593.56;5113345;28;19927;-39
2023/12/01 05:08:27;;;;;;;;;;;;;;;-0.80;100.00;100600.31;5115406;28;19916;-39
2023/12/01 05:10:54;;;;;;;;;;;;;;;-0.79;100.00;100581.72;5119219;28;19928;-38
2023/12/01 05:13:19;;;;;;;;;;;;;;;-0.77;100.00;100585.06;5120663;28;19927;-40
2023/12/01 05:15:44;;;;;;;;;;;;;;;-0.69;100.00;100593.25;5120350;28;19924;-40
2023/12/01 05:18:10;;;;;;;;;;;;;;;-0.64;100.00;100597.38;5115876;28;19920;-40
2023/12/01 05:20:35;;;;;;;;;;;;;;;-0.62;100.00;100603.38;5115782;28;19955;-38
2023/12/01 05:23:02;;;;;;;;;;;;;;;-0.62;100.00;100601.56;5116302;28;20020;-39
2023/12/01 05:25:27;;;;;;;;;;;;;;;-0.56;100.00;100597.63;5117171;28;19919;-39
2023/12/01 05:27:54;;;;;;;;;;;;;;;-0.51;100.00;100598.13;5106817;28;19924;-39
2023/12/01 05:30:22;;;;;;;;;;;;;;;-0.51;100.00;100601.59;5118493;28;19926;-39
2023/12/01 05:32:48;;;;;;;;;;;;;;;-0.49;100.00;100596.22;5121695;28;19923;-39
2023/12/01 05:35:14;;;;;;;;;;;;;;;-0.55;100.00;100600.16;5117122;28;19930;-39
2023/12/01 05:37:40;;;;;;;;;;;;;;;-0.54;100.00;100595.72;5121618;28;19924;-38
2023/12/01 05:40:06;;;;;;;;;;;;;;;-0.56;100.00;100597.63;5123112;28;19976;-39
2023/12/01 05:42:32;;;;;;;;;;;;;;;-0.55;100.00;100599.31;5123346;28;19926;-39
2023/12/01 05:44:58;;;;;;;;;;;;;;;-0.50;100.00;100603.31;5123638;28;19920;-38
2023/12/01 05:47:23;;;;;;;;;;;;;;;-0.47;100.00;100607.50;5124790;28;19920;-40
2023/12/01 05:49:49;;;;;;;;;;;;;;;-0.47;100.00;100608.34;5123799;27;20353;-39
2023/12/01 05:52:14;;;;;;;;;;;;;;;-0.42;100.00;100609.78;5120983;28;19920;-38
2023/12/01 05:54:40;;;;;;;;;;;;;;;-0.39;100.00;100620.16;5111936;28;19961;-38
2023/12/01 05:57:06;;;;;;;;;;;;;;;-0.39;100.00;100609.59;5137749;27;19938;-39
2023/12/01 05:59:32;;;;;;;;;;;;;;;-0.34;100.00;100620.63;5121019;28;19931;-38
2023/12/01 06:01:58;;;;;;;;;;;;;;;-0.40;100.00;100614.00;5118161;28;19990;-39
2023/12/01 06:04:24;;;;;;;;;;;;;;;-0.36;100.00;100615.47;5118563;28;19919;-39
2023/12/01 06:06:49;;;;;;;;;;;;;;;-0.33;100.00;100615.22;5118471;28;19927;-38
2023/12/01 06:09:15;;;;;;;;;;;;;;;-0.33;100.00;100612.59;5118650;28;19916;-39
2023/12/01 06:11:41;;;;;;;;;;;;;;;-0.36;100.00;100623.41;5118508;28;20022;-39
2023/12/01 06:14:06;;;;;;;;;;;;;;;-0.32;100.00;100627.47;5118108;28;19919;-38
2023/12/01 06:16:31;;;;;;;;;;;;;;;-0.29;100.00;100615.81;5118173;28;19923;-39
2023/12/01 06:18:56;;;;;;;;;;;;;;;-0.31;100.00;100618.59;5117789;28;19922;-40
2023/12/01 06:21:22;;;;;;;;;;;;;;;-0.30;100.00;100611.50;5118664;28;19979;-39
2023/12/01 06:23:47;;;;;;;;;;;;;;;-0.30;100.00;100625.56;5121689;28;19998;-39
2023/12/01 06:26:12;;;;;;;;;;;;;;;-0.26;100.00;100632.31;5113872;28;20026;-39
2023/12/01 06:28:38;;;;;;;;;;;;;;;-0.24;100.00;100624.25;5114675;28;19955;-40
2023/12/01 06:31:04;;;;;;;;;;;;;;;-0.19;100.00;100621.25;5115838;28;19982;-39
2023/12/01 06:33:29;;;;;;;;;;;;;;;-0.16;100.00;100626.31;5114808;28;19920;-39
2023/12/01 06:35:54;;;;;;;;;;;;;;;-0.14;100.00;100624.38;5116547;28;20347;-40
2023/12/01 06:38:20;;;;;;;;;;;;;;;-0.15;100.00;100618.25;5116737;28;19916;-44
2023/12/01 06:40:45;;;;;;;;;;;;;;;-0.11;100.00;100622.34;5117629;28;19930;-39
2023/12/01 06:43:10;;;;;;;;;;;;;;;-0.10;100.00;100623.22;5117081;28;20326;-38
2023/12/01 06:45:37;;;;;;;;;;;;;;;-0.09;100.00;100627.53;5116667;28;20536;-39
2023/12/01 06:48:02;;;;;;;;;;;;;;;-0.10;100.00;100615.28;5116059;28;20286;-40
2023/12/01 06:50:27;;;;;;;;;;;;;;;-0.14;100.00;100627.03;5117135;28;19941;-38
2023/12/01 06:52:52;;;;;;;;;;;;;;;-0.22;100.00;100623.16;5117535;28;19920;-39
2023/12/01 06:55:18;;;;;;;;;;;;;;;-0.15;100.00;100628.00;5117401;28;20455;-39
2023/12/01 06:57:43;;;;;;;;;;;;;;;-0.12;100.00;100633.06;5116663;28;20258;-39
2023/12/01 07:00:09;;;;;;;;;;;;;;;-0.09;100.00;100630.16;5117103;28;19916;-39
2023/12/01 07:02:38;;;;;;;;;;;;;;;-0.12;100.00;100627.75;5115343;28;19916;-40
2023/12/01 07:05:04;;;;;;;;;;;;;;;-0.08;100.00;100634.50;5116337;28;20374;-39
2023/12/01 07:07:30;;;;;;;;;;;;;;;-0.07;100.00;100631.75;5117952;28;19922;-39
2023/12/01 07:09:56;;;;;;;;;;;;;;;-0.08;100.00;100642.44;5121465;28;19920;-40
2023/12/01 07:12:22;;;;;;;;;;;;;;;-0.03;100.00;100642.91;5124246;28;19916;-39
2023/12/01 07:14:48;;;;;;;;;;;;;;;-0.02;100.00;100644.63;5122457;28;20408;-39
2023/12/01 07:17:14;;;;;;;;;;;;;;;-0.02;100.00;100644.63;5117457;28;20012;-39
2023/12/01 07:19:39;;;;;;;;;;;;;;;-0.02;100.00;100649.91;5117013;28;19919;-39
2023/12/01 07:22:04;;;;;;;;;;;;;;;0.05;100.00;100651.09;5116152;28;19915;-40
2023/12/01 07:24:29;;;;;;;;;;;;;;;0.03;100.00;100647.75;5115499;28;19927;-39
2023/12/01 07:26:54;;;;;;;;;;;;;;;0.09;100.00;100652.56;5117669;28;19924;-39
2023/12/01 07:29:20;;;;;;;;;;;;;;;0.16;100.00;100651.13;5117873;28;19926;-39
2023/12/01 07:31:45;;;;;;;;;;;;;;;0.16;100.00;100652.94;5118280;28;19963;-40
2023/12/01 07:34:11;;;;;;;;;;;;;;;0.16;100.00;100648.47;5115360;28;19919;-39
2023/12/01 07:36:36;;;;;;;;;;;;;;;0.19;100.00;100652.69;5116779;28;19927;-40
2023/12/01 07:39:01;;;;;;;;;;;;;;;0.18;100.00;100649.19;5119493;28;19927;-38
2023/12/01 07:41:27;;;;;;;;;;;;;;;0.22;100.00;100648.00;5120382;28;19916;-39
2023/12/01 07:43:52;;;;;;;;;;;;;;;0.19;100.00;100656.19;5118916;28;19916;-38
2023/12/01 07:46:17;;;;;;;;;;;;;;;0.12;100.00;100652.31;5117848;28;19916;-40
2023/12/01 07:48:42;;;;;;;;;;;;;;;0.18;100.00;100657.13;5118361;28;20351;-39
2023/12/01 07:51:08;;;;;;;;;;;;;;;0.19;100.00;100661.47;5116625;28;20419;-40
2023/12/01 07:53:33;;;;;;;;;;;;;;;0.24;100.00;100665.53;5116018;28;20453;-39
2023/12/01 07:55:59;;;;;;;;;;;;;;;0.24;100.00;100666.41;5114401;28;19916;-39
2023/12/01 07:58:24;;;;;;;;;;;;;;;0.24;100.00;100676.13;5115419;28;19954;-38
2023/12/01 08:00:50;;;;;;;;;;;;;;;0.25;100.00;100667.25;5115299;28;19916;-40
2023/12/01 08:03:15;;;;;;;;;;;;;;;0.28;100.00;100665.19;5115418;28;19923;-39
2023/12/01 08:05:40;;;;;;;;;;;;;;;0.28;100.00;100667.84;5115293;28;19919;-39
2023/12/01 08:08:05;;;;;;;;;;;;;;;0.25;100.00;100673.38;5115675;28;19916;-39
2023/12/01 08:10:30;;;;;;;;;;;;;;;0.26;100.00;100674.22;5115418;28;19927;-40
2023/12/01 08:12:56;;;;;;;;;;;;;;;0.27;100.00;100671.47;5114875;28;20274;-39
2023/12/01 08:15:21;;;;;;;;;;;;;;;0.27;100.00;100674.09;5114589;28;19916;-39
2023/12/01 08:17:46;;;;;;;;;;;;;;;0.24;100.00;100670.84;5115025;28;19934;-39
2023/12/01 08:20:12;;;;;;;;;;;;;;;0.29;100.00;100673.97;5114163;28;19923;-39
2023/12/01 08:22:37;;;;;;;;;;;;;;;0.32;100.00;100676.41;5115862;28;19989;-39
2023/12/01 08:25:03;;;;;;;;;;;;;;;0.33;100.00;100675.44;5116671;28;19958;-39
2023/12/01 08:27:28;;;;;;;;;;;;;;;0.38;100.00;100673.25;5116790;28;20366;-39
2023/12/01 08:29:54;;;;;;;;;;;;;;;0.35;100.00;100671.69;5098165;28;19922;-38
2023/12/01 08:32:19;;;;;;;;;;;;;;;0.42;100.00;100674.69;5115739;28;19926;-41
2023/12/01 08:34:44;;;;;;;;;;;;;;;0.45;100.00;100674.47;5116562;28;19916;-40
2023/12/01 08:37:09;;;;;;;;;;;;;;;0.39;100.00;100680.22;5116225;28;20004;-38
2023/12/01 08:39:35;;;;;;;;;;;;;;;0.50;100.00;100682.03;5115336;28;19916;-39
2023/12/01 08:42:00;;;;;;;;;;;;;;;0.51;100.00;100679.28;5115502;28;19916;-39
2023/12/01 08:44:25;;;;;;;;;;;;;;;0.57;100.00;100683.25;5116545;28;19922;-38
2023/12/01 08:46:51;;;;;;;;;;;;;;;0.59;100.00;100681.31;5120856;28;19947;-39
2023/12/01 08:49:16;;;;;;;;;;;;;;;0.63;100.00;100678.31;5121425;28;19916;-40
2023/12/01 08:51:41;;;;;;;;;;;;;;;0.65;100.00;100689.59;5120565;27;19923;-39
2023/12/01 08:54:06;;;;;;;;;;;;;;;0.67;100.00;100688.66;5118652;28;19916;-40
2023/12/01 08:56:32;;;;;;;;;;;;;;;0.71;100.00;100684.78;5117854;28;19941;-39
2023/12/01 08:58:58;;;;;;;;;;;;;;;0.71;100.00;100692.72;5115259;28;20415;-40
2023/12/01 09:01:23;;;;;;;;;;;;;;;0.81;100.00;100689.22;5115248;28;19951;-40
2023/12/01 09:03:48;;;;;;;;;;;;;;;0.92;100.00;100698.97;5113100;28;20003;-39
2023/12/01 09:06:13;;;;;;;;;;;;;;;0.93;100.00;100694.53;5114837;28;19966;-40
2023/12/01 09:08:40;;;;;;;;;;;;;;;0.97;100.00;100691.47;5115940;28;20147;-39
2023/12/01 09:11:06;;;;;;;;;;;;;;;0.97;100.00;100696.78;5121066;28;19916;-39
2023/12/01 09:13:34;;;;;;;;;;;;;;;1.11;100.00;100708.94;5120990;28;19916;-39
2023/12/01 09:16:00;;;;;;;;;;;;;;;1.26;100.00;100709.50;5118838;28;19992;-39
2023/12/01 09:18:25;;;;;;;;;;;;;;;1.33;100.00;100708.03;5116782;28;19915;-39
2023/12/01 09:20:50;;;;;;;;;;;;;;;1.38;100.00;100712.97;5119000;28;19916;-40
2023/12/01 09:23:15;;;;;;;;;;;;;;;1.38;100.00;100711.16;5118338;28;19923;-40
2023/12/01 09:25:40;;;;;;;;;;;;;;;1.37;100.00;100714.78;5116254;28;19916;-40
2023/12/01 09:28:06;;;;;;;;;;;;;;;1.36;100.00;100718.38;5115306;28;19971;-40
2023/12/01 09:30:31;;;;;;;;;;;;;;;1.39;100.00;100723.44;5114097;28;19943;-39
2023/12/01 09:32:57;;;;;;;;;;;;;;;1.37;100.00;100720.09;5116056;28;20268;-39
2023/12/01 09:35:23;;;;;;;;;;;;;;;1.55;100.00;100720.34;5114652;28;20015;-40
2023/12/01 09:37:48;;;;;;;;;;;;;;;1.63;100.00;100725.88;5114421;28;19959;-40
2023/12/01 09:40:14;;;;;;;;;;;;;;;1.77;100.00;100721.25;5114517;28;19961;-40
2023/12/01 09:42:39;;;;;;;;;;;;;;;1.74;100.00;100730.31;5113784;28;19941;-40
2023/12/01 09:45:05;;;;;;;;;;;;;;;1.75;100.00;100724.03;5112955;28;19916;-39
2023/12/01 09:47:32;;;;;;;;;;;;;;;2.16;100.00;100722.38;5114063;28;19923;-39
2023/12/01 09:49:57;;;;;;;;;;;;;;;2.73;100.00;100722.75;5112738;28;19916;-40
2023/12/01 09:52:22;;;;;;;;;;;;;;;3.07;100.00;100728.59;5112366;28;19938;-38
2023/12/01 09:54:47;;;;;;;;;;;;;;;3.06;100.00;100724.28;5113618;28;19915;-40
2023/12/01 09:57:13;;;;;;;;;;;;;;;3.21;100.00;100730.91;5112087;28;20010;-39
2023/12/01 09:59:38;;;;;;;;;;;;;;;3.62;100.00;100734.28;5113842;28;19963;-41
2023/12/01 10:02:03;;;;;;;;;;;;;;;3.53;100.00;100724.50;5114548;28;20378;-39
2023/12/01 10:04:32;;;;;;;;;;;;;;;3.33;100.00;100736.09;5115768;28;19916;-40
2023/12/01 10:06:57;;;;;;;;;;;;;;;2.95;100.00;100727.88;5116005;28;19951;-40
2023/12/01 10:09:32;;;;;;;;;;;;;;;2.63;100.00;100731.56;5117136;28;19942;-40
2023/12/01 10:12:06;;;;;;;;;;;;;;;2.42;100.00;100736.91;5119186;28;20442;-38
2023/12/01 10:14:32;;;;;;;;;;;;;;;2.44;100.00;100739.41;5118428;28;20467;-39
2023/12/01 10:17:00;;;;;;;;;;;;;;;2.49;100.00;100725.75;5117229;28;19923;-39
2023/12/01 10:19:25;;;;;;;;;;;;;;;2.67;100.00;100725.97;5117149;28;20007;-40
2023/12/01 10:21:51;;;;;;;;;;;;;;;3.03;100.00;100732.53;5117555;28;19951;-41
2023/12/01 10:24:17;;;;;;;;;;;;;;;3.32;100.00;100735.25;5118023;28;19967;-39
2023/12/01 10:26:43;;;;;;;;;;;;;;;3.67;100.00;100729.38;5115684;28;19969;-39
2023/12/01 10:29:30;;;;;;;;;;;;;;;3.92;100.00;100740.44;5117277;28;19915;-39
2023/12/01 10:32:00;;;;;;;;;;;;;;;4.35;100.00;100728.47;5116965;28;20014;-40
2023/12/01 10:34:25;;;;;;;;;;;;;;;4.59;100.00;100736.81;5122184;28;19916;-39
2023/12/01 10:36:54;;;;;;;;;;;;;;;4.59;100.00;100734.13;5123499;28;19938;-40
2023/12/01 10:39:24;;;;;;;;;;;;;;;4.56;100.00;100734.44;5121648;28;19915;-40
2023/12/01 10:41:49;;;;;;;;;;;;;;;4.47;100.00;100737.94;5122265;28;19916;-40
2023/12/01 10:44:17;;;;;;;;;;;;;;;4.54;100.00;100730.22;5120774;28;19923;-40
2023/12/01 10:46:48;;;;;;;;;;;;;;;4.87;100.00;100734.19;5119569;28;19916;-39
2023/12/01 10:49:14;;;;;;;;;;;;;;;5.01;100.00;100736.34;5118994;28;19922;-40
2023/12/01 10:51:41;;;;;;;;;;;;;;;5.16;100.00;100741.16;5117548;28;19969;-40
2023/12/01 10:54:07;;;;;;;;;;;;;;;5.26;100.00;100732.09;5116864;28;20365;-39
2023/12/01 10:56:32;;;;;;;;;;;;;;;5.33;100.00;100728.88;5116011;28;19915;-40
2023/12/01 10:58:57;;;;;;;;;;;;;;;5.34;100.00;100734.03;5118402;28;19916;-40
2023/12/01 11:01:22;;;;;;;;;;;;;;;5.19;100.00;100730.22;5117632;28;19919;-39
2023/12/01 11:03:48;;;;;;;;;;;;;;;5.07;100.00;100735.72;5099742;28;20404;-39
2023/12/01 11:06:17;;;;;;;;;;;;;;;5.31;100.00;100734.34;5116074;28;19961;-41
2023/12/01 11:08:50;;;;;;;;;;;;;;;5.69;100.00;100743.06;5114808;28;19923;-40
2023/12/01 11:11:39;;;;;;;;;;;;;;;5.97;100.00;100732.31;5115078;28;19912;-40
2023/12/01 11:14:18;;;;;;;;;;;;;;;6.11;100.00;100737.94;5097718;28;20196;-39
2023/12/01 11:16:43;;;;;;;;;;;;;;;5.98;100.00;100728.63;5116105;28;19916;-41
2023/12/01 11:19:11;;;;;;;;;;;;;;;5.84;100.00;100732.69;5114726;28;19911;-40
2023/12/01 11:21:40;;;;;;;;;;;;;;;6.27;100.00;100726.53;5114597;28;19968;-40
2023/12/01 11:24:24;;;;;;;;;;;;;;;6.62;100.00;100724.75;5117244;27;20370;-40
2023/12/01 11:26:51;;;;;;;;;;;;;;;7.69;100.00;100728.59;5117034;28;20354;-41
2023/12/01 11:29:32;;;;;;;;;;;;;;;7.69;99.29;100733.97;5117183;28;19916;-39
2023/12/01 11:31:57;;;;;;;;;;;;;;;7.86;99.99;100735.63;5116416;28;19922;-40
2023/12/01 11:34:24;;;;;;;;;;;;;;;7.80;95.85;100740.84;5098516;28;19919;-40
2023/12/01 11:36:50;;;;;;;;;;;;;;;7.78;98.53;100734.78;5117197;28;20267;-40
2023/12/01 11:41:41;;;;;;;;;;;;;;;7.85;100.00;100733.13;5117379;28;19951;-40
2023/12/01 11:44:09;;;;;;;;;;;;;;;7.88;100.00;100732.78;5117247;28;19916;-40
2023/12/01 11:46:35;;;;;;;;;;;;;;;7.95;98.98;100736.47;5115384;28;20393;-40
2023/12/01 11:49:00;;;;;;;;;;;;;;;7.82;100.00;100734.31;5116167;28;19916;-39
2023/12/01 11:51:26;;;;;;;;;;;;;;;7.92;100.00;100739.47;5116838;28;19916;-40
2023/12/01 11:53:57;;;;;;;;;;;;;;;7.46;98.40;100736.44;5114258;28;19950;-40
2023/12/01 11:56:26;;;;;;;;;;;;;;;7.29;100.00;100737.38;5115323;28;20293;-39
2023/12/01 11:58:52;;;;;;;;;;;;;;;7.18;97.25;100742.03;5115328;28;19924;-40
2023/12/01 12:01:18;;;;;;;;;;;;;;;6.88;100.00;100735.41;5116590;28;19951;-39
2023/12/01 12:03:43;;;;;;;;;;;;;;;6.56;100.00;100744.09;5116526;28;19924;-39
2023/12/01 12:06:11;;;;;;;;;;;;;;;5.70;100.00;100737.56;5117586;28;19927;-39
2023/12/01 12:08:36;;;;;;;;;;;;;;;5.12;100.00;100745.13;5116153;28;19915;-39
2023/12/01 12:11:01;;;;;;;;;;;;;;;4.65;100.00;100734.53;5115289;28;20444;-38
2023/12/01 12:13:27;;;;;;;;;;;;;;;4.31;100.00;100737.72;5115560;28;19911;-39
2023/12/01 12:15:52;;;;;;;;;;;;;;;3.89;100.00;100736.22;5114893;28;19923;-39
2023/12/01 12:18:19;;;;;;;;;;;;;;;3.80;100.00;100738.94;5116574;28;19912;-39
2023/12/01 12:20:46;;;;;;;;;;;;;;;3.63;100.00;100735.97;5116836;28;19923;-39
2023/12/01 12:23:11;;;;;;;;;;;;;;;3.64;100.00;100737.66;5115754;28;20010;-40
2023/12/01 12:25:37;;;;;;;;;;;;;;;3.63;100.00;100741.28;5114750;28;19970;-38
2023/12/01 12:28:09;;;;;;;;;;;;;;;3.67;100.00;100737.38;5114810;28;19995;-39
2023/12/01 12:30:34;;;;;;;;;;;;;;;3.81;100.00;100735.28;5114363;28;19920;-40